createdAt,value
2023-01-13T00:02:15.624Z,21.10
2023-01-13T00:04:49.810Z,18.70
2023-01-13T00:07:23.296Z,21.70
2023-01-13T00:09:56.574Z,20.30
2023-01-13T00:12:29.695Z,19.20
2023-01-13T00:15:02.955Z,20.60
2023-01-13T00:17:35.813Z,22.40
2023-01-13T00:20:10.176Z,21.90
2023-01-13T00:22:43.249Z,26.70
2023-01-13T00:25:20.734Z,24.80
2023-01-13T00:27:53.675Z,22.20
2023-01-13T00:30:26.931Z,19.60
2023-01-13T00:32:59.875Z,20.90
2023-01-13T00:35:32.882Z,23.40
2023-01-13T00:38:05.981Z,22.30
2023-01-13T00:40:39.094Z,18.60
2023-01-13T00:43:27.607Z,19.40
2023-01-13T00:46:00.657Z,23.20
2023-01-13T00:48:34.401Z,22.30
2023-01-13T00:51:10.383Z,18.00
2023-01-13T00:53:45.602Z,20.40
2023-01-13T00:56:34.152Z,21.60
2023-01-13T00:59:15.218Z,18.80
2023-01-13T01:01:48.362Z,22.10
2023-01-13T01:04:21.184Z,23.20
2023-01-13T01:06:54.252Z,19.80
2023-01-13T01:09:34.427Z,21.00
2023-01-13T01:12:07.644Z,18.00
2023-01-13T01:14:40.482Z,24.40
2023-01-13T01:17:13.353Z,22.20
2023-01-13T01:19:46.416Z,25.40
2023-01-13T01:22:19.732Z,22.90
2023-01-13T01:24:53.207Z,22.90
2023-01-13T01:27:26.346Z,16.70
2023-01-13T01:29:59.222Z,22.20
2023-01-13T01:32:32.484Z,23.30
2023-01-13T01:35:05.575Z,20.30
2023-01-13T01:37:38.740Z,20.60
2023-01-13T01:40:12.363Z,18.10
2023-01-13T01:43:04.190Z,21.00
2023-01-13T01:45:37.138Z,24.20
2023-01-13T01:48:11.266Z,22.40
2023-01-13T01:50:44.219Z,18.90
2023-01-13T01:53:24.567Z,20.60
2023-01-13T01:55:59.567Z,20.40
2023-01-13T01:58:37.307Z,21.20
2023-01-13T02:01:11.057Z,20.70
2023-01-13T02:03:52.878Z,21.90
2023-01-13T02:06:27.036Z,23.90
2023-01-13T02:09:01.227Z,28.40
2023-01-13T02:11:57.320Z,22.90
2023-01-13T02:14:32.648Z,21.40
2023-01-13T02:17:21.127Z,24.80
2023-01-13T02:20:18.401Z,20.20
2023-01-13T02:23:44.040Z,23.60
2023-01-13T02:26:34.321Z,22.70
2023-01-13T02:30:05.921Z,22.10
2023-01-13T02:33:34.896Z,19.10
2023-01-13T02:36:16.942Z,20.90
2023-01-13T02:39:10.220Z,21.80
2023-01-13T02:42:11.565Z,17.40
2023-01-13T02:45:03.599Z,20.90
2023-01-13T02:47:41.303Z,22.30
2023-01-13T02:50:22.233Z,20.50
2023-01-13T02:53:04.404Z,20.60
2023-01-13T02:55:48.092Z,19.00
2023-01-13T02:58:26.000Z,18.20
2023-01-13T03:00:59.175Z,18.60
2023-01-13T03:03:32.339Z,22.90
2023-01-13T03:06:32.044Z,16.70
2023-01-13T03:09:10.925Z,19.80
2023-01-13T03:12:01.131Z,17.40
2023-01-13T03:14:48.333Z,15.90
2023-01-13T03:17:43.692Z,17.90
2023-01-13T03:20:27.651Z,16.60
2023-01-13T03:23:06.456Z,16.80
2023-01-13T03:25:51.639Z,19.50
2023-01-13T03:28:42.415Z,17.80
2023-01-13T03:31:22.751Z,15.90
2023-01-13T03:34:03.097Z,18.70
2023-01-13T03:36:38.666Z,17.30
2023-01-13T03:39:17.965Z,17.60
2023-01-13T03:42:04.275Z,19.30
2023-01-13T03:45:20.791Z,19.80
2023-01-13T03:48:00.336Z,16.80
2023-01-13T03:50:39.311Z,17.80
2023-01-13T03:53:51.716Z,17.70
2023-01-13T03:56:44.855Z,15.70
2023-01-13T03:59:24.961Z,15.50
2023-01-13T04:02:05.391Z,15.80
2023-01-13T04:04:44.612Z,17.00
2023-01-13T04:07:43.203Z,19.00
2023-01-13T04:10:21.761Z,15.40
2023-01-13T04:13:07.235Z,15.50
2023-01-13T04:15:45.816Z,20.50
2023-01-13T04:18:21.376Z,14.80
2023-01-13T04:20:56.088Z,18.00
2023-01-13T04:23:29.760Z,17.00
2023-01-13T04:26:03.070Z,17.70
2023-01-13T04:28:36.225Z,15.40
2023-01-13T04:31:09.487Z,16.70
2023-01-13T04:33:43.027Z,17.30
2023-01-13T04:36:16.253Z,17.70
2023-01-13T04:38:49.416Z,15.90
2023-01-13T04:41:22.599Z,15.70
2023-01-13T04:43:55.825Z,18.70
2023-01-13T04:46:28.625Z,17.70
2023-01-13T04:49:01.783Z,19.50
2023-01-13T04:51:34.718Z,18.30
2023-01-13T04:54:07.836Z,20.10
2023-01-13T04:56:41.049Z,17.60
2023-01-13T04:59:15.027Z,20.30
2023-01-13T05:01:48.266Z,22.50
2023-01-13T05:04:21.631Z,18.70
2023-01-13T05:06:54.638Z,15.80
2023-01-13T05:09:28.875Z,22.70
2023-01-13T05:12:20.437Z,18.40
2023-01-13T05:15:12.161Z,19.30
2023-01-13T05:17:47.057Z,19.80
2023-01-13T05:20:20.999Z,25.20
2023-01-13T05:23:12.678Z,18.00
2023-01-13T05:25:46.802Z,22.60
2023-01-13T05:28:19.840Z,21.90
2023-01-13T05:30:53.082Z,18.50
2023-01-13T05:33:26.363Z,21.00
2023-01-13T05:36:03.754Z,19.00
2023-01-13T05:38:36.759Z,24.00
2023-01-13T05:41:28.480Z,17.00
2023-01-13T05:44:01.730Z,17.60
2023-01-13T05:46:35.036Z,17.00
2023-01-13T05:49:07.987Z,17.70
2023-01-13T05:51:40.925Z,19.30
2023-01-13T05:54:14.411Z,20.20
2023-01-13T05:56:47.674Z,22.20
2023-01-13T05:59:20.651Z,17.90
2023-01-13T06:01:53.916Z,23.70
2023-01-13T06:04:26.850Z,19.60
2023-01-13T06:07:00.135Z,19.80
2023-01-13T06:09:33.549Z,21.40
2023-01-13T06:12:06.961Z,19.40
2023-01-13T06:14:42.510Z,19.30
2023-01-13T06:17:17.572Z,17.20
2023-01-13T06:19:51.575Z,24.50
2023-01-13T06:22:26.418Z,17.50
2023-01-13T06:24:59.732Z,17.90
2023-01-13T06:27:33.308Z,21.30
2023-01-13T06:30:06.359Z,16.90
2023-01-13T06:32:45.233Z,21.50
2023-01-13T06:35:20.947Z,19.30
2023-01-13T06:37:57.309Z,18.50
2023-01-13T06:40:30.352Z,26.50
2023-01-13T06:43:17.318Z,21.30
2023-01-13T06:45:54.608Z,21.30
2023-01-13T06:48:33.905Z,21.40
2023-01-13T06:51:08.703Z,23.90
2023-01-13T06:53:42.105Z,19.70
2023-01-13T06:56:15.491Z,24.60
2023-01-13T06:58:48.325Z,29.40
2023-01-13T07:01:21.569Z,22.40
2023-01-13T07:03:55.526Z,17.80
2023-01-13T07:06:29.286Z,23.50
2023-01-13T07:09:03.084Z,19.40
2023-01-13T07:11:36.339Z,17.50
2023-01-13T07:14:28.323Z,24.40
2023-01-13T07:17:01.376Z,25.30
2023-01-13T07:19:38.569Z,21.50
2023-01-13T07:22:11.874Z,24.40
2023-01-13T07:24:45.096Z,19.90
2023-01-13T07:27:18.372Z,17.20
2023-01-13T07:29:51.510Z,18.90
2023-01-13T07:32:24.013Z,22.30
2023-01-13T07:34:59.156Z,22.20
2023-01-13T07:37:33.578Z,21.10
2023-01-13T07:40:10.434Z,20.70
2023-01-13T07:43:01.598Z,20.40
2023-01-13T07:45:34.764Z,22.10
2023-01-13T07:48:08.670Z,34.20
2023-01-13T07:50:44.173Z,34.10
2023-01-13T07:53:17.057Z,29.90
2023-01-13T07:55:51.079Z,56.70
2023-01-13T07:58:23.735Z,31.30
2023-01-13T08:00:58.455Z,24.00
2023-01-13T08:03:31.524Z,27.60
2023-01-13T08:06:05.589Z,24.40
2023-01-13T08:08:38.707Z,25.90
2023-01-13T08:11:11.551Z,25.20
2023-01-13T08:13:44.121Z,19.60
2023-01-13T08:16:18.208Z,19.60
2023-01-13T08:18:51.779Z,21.10
2023-01-13T08:21:24.962Z,18.80
2023-01-13T08:23:57.881Z,18.70
2023-01-13T08:26:31.162Z,22.80
2023-01-13T08:29:04.231Z,21.00
2023-01-13T08:31:37.002Z,19.20
2023-01-13T08:34:10.280Z,26.50
2023-01-13T08:36:44.038Z,29.70
2023-01-13T08:39:16.669Z,21.20
2023-01-13T08:41:59.401Z,26.30
2023-01-13T08:44:34.520Z,23.60
2023-01-13T08:47:08.363Z,24.30
2023-01-13T08:49:42.218Z,28.10
2023-01-13T08:52:16.794Z,24.80
2023-01-13T08:54:51.295Z,28.30
2023-01-13T08:57:24.345Z,31.50
2023-01-13T08:59:56.965Z,25.00
2023-01-13T09:02:30.056Z,27.40
2023-01-13T09:05:05.832Z,20.40
2023-01-13T09:07:40.930Z,21.20
2023-01-13T09:10:14.095Z,21.20
2023-01-13T09:13:05.811Z,17.70
2023-01-13T09:15:39.851Z,18.40
2023-01-13T09:18:13.025Z,24.90
2023-01-13T09:20:45.951Z,25.70
2023-01-13T09:23:19.893Z,21.00
2023-01-13T09:25:54.713Z,19.90
2023-01-13T09:28:27.805Z,18.30
2023-01-13T09:31:04.135Z,18.90
2023-01-13T09:33:55.839Z,19.10
2023-01-13T09:36:29.870Z,22.20
2023-01-13T09:39:03.087Z,18.90
2023-01-13T09:42:04.929Z,19.20
2023-01-13T09:44:56.907Z,21.60
2023-01-13T09:47:48.158Z,21.30
2023-01-13T09:51:04.745Z,21.80
2023-01-13T09:53:49.569Z,25.80
2023-01-13T09:56:23.817Z,23.80
2023-01-13T09:58:57.859Z,23.40
2023-01-13T10:01:49.466Z,26.40
2023-01-13T10:04:23.587Z,24.70
2023-01-13T10:07:05.548Z,18.80
2023-01-13T10:09:59.533Z,21.80
2023-01-13T10:12:53.157Z,18.50
2023-01-13T10:15:29.197Z,23.50
2023-01-13T10:18:10.175Z,23.30
2023-01-13T10:20:59.077Z,25.50
2023-01-13T10:23:57.233Z,23.50
2023-01-13T10:26:41.517Z,23.00
2023-01-13T10:29:28.636Z,22.70
2023-01-13T10:32:03.617Z,19.20
2023-01-13T10:34:57.789Z,24.00
2023-01-13T10:37:32.147Z,20.70
2023-01-13T10:40:08.642Z,21.40
2023-01-13T10:42:43.606Z,26.70
2023-01-13T10:45:29.065Z,30.50
2023-01-13T10:48:17.122Z,26.40
2023-01-13T10:50:52.256Z,23.40
2023-01-13T10:53:31.611Z,22.30
2023-01-13T10:56:07.657Z,23.80
2023-01-13T10:58:41.277Z,24.70
2023-01-13T11:01:31.030Z,26.40
2023-01-13T11:04:19.497Z,24.30
2023-01-13T11:06:52.829Z,18.80
2023-01-13T11:09:27.169Z,21.60
2023-01-13T11:12:06.075Z,25.00
2023-01-13T11:14:43.702Z,24.80
2023-01-13T11:17:34.186Z,24.00
2023-01-13T11:20:22.842Z,26.80
2023-01-13T11:23:01.150Z,24.10
2023-01-13T11:25:47.460Z,28.60
2023-01-13T11:28:49.150Z,24.30
2023-01-13T11:31:36.757Z,26.00
2023-01-13T11:34:21.637Z,26.60
2023-01-13T11:36:57.489Z,24.40
2023-01-13T11:39:50.483Z,26.50
2023-01-13T11:42:48.592Z,24.40
2023-01-13T11:45:31.917Z,37.60
2023-01-13T11:48:06.158Z,35.60
2023-01-13T11:50:54.654Z,32.50
2023-01-13T11:54:03.913Z,23.50
2023-01-13T11:57:03.756Z,29.40
2023-01-13T11:59:49.906Z,25.80
2023-01-13T12:02:37.273Z,23.20
2023-01-13T12:05:21.334Z,23.20
2023-01-13T12:08:26.873Z,25.40
2023-01-13T12:11:11.825Z,26.60
2023-01-13T12:14:02.986Z,27.40
2023-01-13T12:16:36.319Z,28.60
2023-01-13T12:19:28.588Z,28.40
2023-01-13T12:22:22.624Z,33.20
2023-01-13T12:25:23.891Z,25.30
2023-01-13T12:28:19.664Z,26.10
2023-01-13T12:31:05.079Z,26.10
2023-01-13T12:33:56.071Z,27.20
2023-01-13T12:36:44.896Z,29.20
2023-01-13T12:39:35.597Z,27.90
2023-01-13T12:42:42.516Z,27.80
2023-01-13T12:45:16.841Z,28.40
2023-01-13T12:47:51.798Z,29.60
2023-01-13T12:50:26.029Z,28.10
2023-01-13T12:53:03.535Z,24.60
2023-01-13T12:55:37.422Z,34.50
2023-01-13T12:58:13.150Z,30.40
2023-01-13T13:00:49.050Z,29.70
2023-01-13T13:03:38.461Z,29.60
2023-01-13T13:06:24.822Z,28.50
2023-01-13T13:09:16.440Z,30.30
2023-01-13T13:11:59.873Z,30.70
2023-01-13T13:15:04.224Z,30.00
2023-01-13T13:17:37.621Z,25.50
2023-01-13T13:20:47.145Z,24.60
2023-01-13T13:23:39.759Z,24.40
2023-01-13T13:26:42.831Z,23.50
2023-01-13T13:29:46.955Z,23.50
2023-01-13T13:32:36.785Z,25.80
2023-01-13T13:35:53.820Z,24.40
2023-01-13T13:39:02.612Z,24.40
2023-01-13T13:41:57.540Z,22.70
2023-01-13T13:45:09.100Z,24.90
2023-01-13T13:47:42.697Z,28.60
2023-01-13T13:50:22.031Z,24.00
2023-01-13T13:53:09.720Z,22.90
2023-01-13T13:55:55.216Z,26.60
2023-01-13T13:58:37.513Z,27.70
2023-01-13T14:01:21.560Z,29.50
2023-01-13T14:04:27.695Z,23.10
2023-01-13T14:07:05.454Z,24.20
2023-01-13T14:09:47.246Z,25.30
2023-01-13T14:12:26.427Z,26.00
2023-01-13T14:15:00.846Z,24.10
2023-01-13T14:17:35.305Z,27.60
2023-01-13T14:20:15.303Z,24.20
2023-01-13T14:22:53.005Z,24.90
2023-01-13T14:25:34.887Z,26.80
2023-01-13T14:28:24.350Z,28.30
2023-01-13T14:30:58.017Z,30.50
2023-01-13T14:33:44.800Z,28.40
2023-01-13T14:36:23.674Z,26.90
2023-01-13T14:39:08.378Z,27.40
2023-01-13T14:41:54.956Z,33.10
2023-01-13T14:44:39.544Z,28.20
2023-01-13T14:47:34.555Z,25.30
2023-01-13T14:50:27.752Z,27.80
2023-01-13T14:53:01.287Z,27.30
2023-01-13T14:55:42.689Z,31.50
2023-01-13T14:58:29.516Z,29.80
2023-01-13T15:01:30.046Z,29.70
2023-01-13T15:04:26.559Z,29.10
2023-01-13T15:07:01.212Z,31.10
2023-01-13T15:09:46.103Z,30.30
2023-01-13T15:12:39.831Z,26.50
2023-01-13T15:15:38.636Z,25.50
2023-01-13T15:18:19.316Z,26.60
2023-01-13T15:20:54.875Z,27.60
2023-01-13T15:23:28.048Z,24.30
2023-01-13T15:26:03.103Z,24.70
2023-01-13T15:28:36.362Z,23.70
2023-01-13T15:31:09.215Z,23.60
2023-01-13T15:33:42.503Z,23.70
2023-01-13T15:36:31.353Z,26.50
2023-01-13T15:39:04.680Z,22.80
2023-01-13T15:41:56.264Z,26.20
2023-01-13T15:44:47.867Z,26.50
2023-01-13T15:47:22.595Z,23.70
2023-01-13T15:49:57.566Z,24.00
2023-01-13T15:52:30.911Z,24.60
2023-01-13T15:55:04.087Z,22.00
2023-01-13T15:57:40.346Z,20.70
2023-01-13T16:00:23.926Z,24.40
2023-01-13T16:02:57.000Z,24.80
2023-01-13T16:05:30.239Z,29.80
2023-01-13T16:08:03.432Z,27.50
2023-01-13T16:10:36.574Z,24.80
2023-01-13T16:13:09.478Z,27.30
2023-01-13T16:15:47.921Z,28.30
2023-01-13T16:18:26.318Z,27.40
2023-01-13T16:20:59.972Z,26.10
2023-01-13T16:23:33.068Z,29.00
2023-01-13T16:26:08.883Z,30.60
2023-01-13T16:28:42.055Z,28.10
2023-01-13T16:31:32.507Z,28.90
2023-01-13T16:34:07.136Z,32.10
2023-01-13T16:36:40.304Z,31.50
2023-01-13T16:39:24.179Z,28.40
2023-01-13T16:41:57.531Z,30.10
2023-01-13T16:44:30.868Z,30.30
2023-01-13T16:47:04.085Z,27.90
2023-01-13T16:49:36.590Z,27.70
2023-01-13T16:52:09.640Z,25.10
2023-01-13T16:54:43.253Z,27.10
2023-01-13T16:57:16.990Z,30.90
2023-01-13T16:59:49.687Z,29.30
2023-01-13T17:02:22.894Z,29.70
2023-01-13T17:04:56.287Z,28.40
2023-01-13T17:07:29.884Z,30.90
2023-01-13T17:10:03.829Z,30.70
2023-01-13T17:12:36.900Z,27.10
2023-01-13T17:15:10.704Z,26.60
2023-01-13T17:17:44.295Z,29.30
2023-01-13T17:20:18.836Z,31.30
2023-01-13T17:22:58.251Z,27.90
2023-01-13T17:25:33.099Z,27.10
2023-01-13T17:28:06.102Z,25.40
2023-01-13T17:30:41.506Z,23.00
2023-01-13T17:33:15.373Z,25.20
2023-01-13T17:35:48.719Z,25.50
2023-01-13T17:38:21.627Z,21.20
2023-01-13T17:40:54.504Z,23.10
2023-01-13T17:43:28.388Z,20.90
2023-01-13T17:46:01.538Z,24.50
2023-01-13T17:48:34.982Z,22.50
2023-01-13T17:51:13.121Z,23.00
2023-01-13T17:53:46.730Z,20.10
2023-01-13T17:56:20.327Z,23.30
2023-01-13T17:58:53.555Z,19.70
2023-01-13T18:01:31.373Z,22.00
2023-01-13T18:04:05.021Z,21.20
2023-01-13T18:06:38.264Z,19.40
2023-01-13T18:09:11.429Z,20.20
2023-01-13T18:11:47.243Z,21.50
2023-01-13T18:14:22.984Z,24.80
2023-01-13T18:16:56.121Z,26.00
2023-01-13T18:19:48.458Z,26.60
2023-01-13T18:22:39.978Z,28.90
2023-01-13T18:25:34.994Z,27.00
2023-01-13T18:28:07.978Z,32.00
2023-01-13T18:30:40.622Z,37.20
2023-01-13T18:33:13.515Z,30.20
2023-01-13T18:35:46.748Z,29.40
2023-01-13T18:38:23.988Z,30.50
2023-01-13T18:40:57.164Z,26.00
2023-01-13T18:43:29.955Z,26.00
2023-01-13T18:46:03.254Z,26.40
2023-01-13T18:48:36.033Z,25.40
2023-01-13T18:51:09.223Z,26.40
2023-01-13T18:53:42.315Z,22.30
2023-01-13T18:56:16.163Z,26.40
2023-01-13T18:58:55.675Z,23.50
2023-01-13T19:01:30.590Z,26.60
2023-01-13T19:04:05.907Z,23.40
2023-01-13T19:06:49.992Z,24.80
2023-01-13T19:09:29.111Z,25.30
2023-01-13T19:12:02.346Z,24.40
2023-01-13T19:14:37.717Z,23.90
2023-01-13T19:17:13.052Z,23.50
2023-01-13T19:19:48.781Z,20.30
2023-01-13T19:22:27.695Z,21.70
2023-01-13T19:25:01.938Z,21.60
2023-01-13T19:27:35.396Z,25.80
2023-01-13T19:30:09.215Z,23.50
2023-01-13T19:32:42.521Z,22.50
2023-01-13T19:35:18.394Z,23.80
2023-01-13T19:37:51.387Z,25.50
2023-01-13T19:40:24.129Z,23.40
2023-01-13T19:43:15.740Z,30.50
2023-01-13T19:45:51.984Z,24.50
2023-01-13T19:48:24.575Z,24.50
2023-01-13T19:50:57.195Z,24.50
2023-01-13T19:53:30.446Z,26.40
2023-01-13T19:56:03.232Z,25.00
2023-01-13T19:58:36.600Z,26.10
2023-01-13T20:01:10.583Z,22.20
2023-01-13T20:03:44.604Z,28.60
2023-01-13T20:06:17.380Z,23.90
2023-01-13T20:08:50.180Z,26.30
2023-01-13T20:11:23.252Z,23.70
2023-01-13T20:13:55.980Z,25.20
2023-01-13T20:16:29.695Z,25.80
2023-01-13T20:19:02.818Z,23.60
2023-01-13T20:21:35.588Z,21.40
2023-01-13T20:24:12.007Z,29.60
2023-01-13T20:26:44.875Z,24.20
2023-01-13T20:29:17.553Z,24.80
2023-01-13T20:31:50.616Z,24.40
2023-01-13T20:34:23.725Z,21.50
2023-01-13T20:36:57.387Z,22.20
2023-01-13T20:39:31.514Z,23.10
2023-01-13T20:42:23.775Z,19.70
2023-01-13T20:47:31.452Z,19.00
2023-01-13T20:50:04.647Z,21.90
2023-01-13T20:52:38.072Z,21.80
2023-01-13T20:55:12.064Z,21.40
2023-01-13T20:57:49.122Z,20.20
2023-01-13T21:00:22.646Z,22.00
2023-01-13T21:02:56.428Z,20.60
2023-01-13T21:05:29.953Z,20.90
2023-01-13T21:08:03.070Z,20.60
2023-01-13T21:10:36.604Z,20.50
2023-01-13T21:13:28.902Z,18.00
2023-01-13T21:18:53.284Z,18.60
2023-01-13T21:21:27.218Z,18.60
2023-01-13T21:24:00.176Z,23.70
2023-01-13T21:26:34.872Z,21.50
2023-01-13T21:29:07.628Z,21.40
2023-01-13T21:31:40.737Z,24.50
2023-01-13T21:34:13.826Z,24.40
2023-01-13T21:36:47.073Z,21.40
2023-01-13T21:39:20.135Z,21.30
2023-01-13T21:42:12.026Z,23.60
2023-01-13T21:45:03.355Z,23.00
2023-01-13T21:47:52.802Z,21.10
2023-01-13T21:50:30.687Z,20.60
2023-01-13T21:53:04.161Z,20.20
2023-01-13T21:55:38.494Z,18.20
2023-01-13T21:58:16.071Z,20.80
2023-01-13T22:00:50.376Z,21.70
2023-01-13T22:03:23.798Z,20.60
2023-01-13T22:05:59.430Z,19.70
2023-01-13T22:08:36.680Z,21.30
2023-01-13T22:11:09.802Z,20.20
2023-01-13T22:14:01.599Z,20.00
2023-01-13T22:16:40.153Z,24.00
2023-01-13T22:19:13.763Z,20.10
2023-01-13T22:21:46.955Z,19.80
2023-01-13T22:24:20.044Z,19.70
2023-01-13T22:26:53.298Z,19.90
2023-01-13T22:29:26.378Z,22.10
2023-01-13T22:31:59.593Z,19.70
2023-01-13T22:34:32.610Z,22.80
2023-01-13T22:37:05.790Z,20.40
2023-01-13T22:39:38.978Z,21.30
2023-01-13T22:42:12.273Z,20.20
2023-01-13T22:44:46.082Z,20.10
2023-01-13T22:47:19.287Z,21.30
2023-01-13T22:49:52.229Z,22.30
2023-01-13T22:52:28.053Z,22.50
2023-01-13T22:55:01.457Z,23.20
2023-01-13T22:57:46.967Z,20.30
2023-01-13T23:00:25.539Z,22.00
2023-01-13T23:02:58.747Z,22.50
2023-01-13T23:05:32.138Z,19.00
2023-01-13T23:08:05.271Z,19.50
2023-01-13T23:10:38.477Z,19.30
2023-01-13T23:13:11.847Z,18.50
2023-01-13T23:15:45.363Z,14.50
2023-01-13T23:18:18.267Z,15.00
2023-01-13T23:20:51.619Z,15.80
2023-01-13T23:23:25.485Z,15.00
2023-01-13T23:25:59.178Z,16.90
2023-01-13T23:28:32.273Z,14.60
2023-01-13T23:31:17.838Z,17.60
2023-01-13T23:33:51.808Z,16.70
2023-01-13T23:36:27.634Z,18.50
2023-01-13T23:39:01.568Z,17.10
2023-01-13T23:41:35.278Z,18.20
2023-01-13T23:44:08.843Z,16.00
2023-01-13T23:46:42.402Z,16.80
2023-01-13T23:49:15.770Z,17.30
2023-01-13T23:51:51.739Z,15.00
2023-01-13T23:54:24.934Z,17.20
2023-01-13T23:56:58.052Z,14.80
2023-01-13T23:59:31.329Z,16.20
